sensor_id;sensor_type;location;lat;lon;timestamp;pressure;altitude;pressure_sealevel;temperature;humidity
15678;BME280;7939;50.814;6.368;2022-07-23T00:00:35;100138.06;;;23.90;54.98
15678;BME280;7939;50.814;6.368;2022-07-23T00:03:02;100133.75;;;23.89;54.79
15678;BME280;7939;50.814;6.368;2022-07-23T00:05:29;100139.81;;;23.90;54.77
15678;BME280;7939;50.814;6.368;2022-07-23T00:07:55;100136.38;;;23.89;54.58
15678;BME280;7939;50.814;6.368;2022-07-23T00:10:22;100136.41;;;23.88;54.39
15678;BME280;7939;50.814;6.368;2022-07-23T00:12:48;100132.97;;;23.87;54.70
15678;BME280;7939;50.814;6.368;2022-07-23T00:15:16;100129.50;;;23.87;55.09
15678;BME280;7939;50.814;6.368;2022-07-23T00:17:43;100133.06;;;23.86;54.76
15678;BME280;7939;50.814;6.368;2022-07-23T00:20:10;100119.16;;;23.85;54.92
15678;BME280;7939;50.814;6.368;2022-07-23T00:22:45;100105.34;;;23.83;55.06
15678;BME280;7939;50.814;6.368;2022-07-23T00:25:12;100098.34;;;23.84;55.08
15678;BME280;7939;50.814;6.368;2022-07-23T00:27:38;100100.13;;;23.83;55.11
15678;BME280;7939;50.814;6.368;2022-07-23T00:30:06;100105.41;;;23.82;55.00
15678;BME280;7939;50.814;6.368;2022-07-23T00:32:44;100107.16;;;23.81;55.00
15678;BME280;7939;50.814;6.368;2022-07-23T00:35:11;100118.53;;;23.80;55.21
15678;BME280;7939;50.814;6.368;2022-07-23T00:37:37;100112.47;;;23.80;55.10
15678;BME280;7939;50.814;6.368;2022-07-23T00:40:05;100113.41;;;23.79;55.36
15678;BME280;7939;50.814;6.368;2022-07-23T00:42:32;100112.56;;;23.78;55.14
15678;BME280;7939;50.814;6.368;2022-07-23T00:44:58;100109.09;;;23.78;55.21
15678;BME280;7939;50.814;6.368;2022-07-23T00:47:25;100112.63;;;23.77;54.94
15678;BME280;7939;50.814;6.368;2022-07-23T00:49:53;100125.69;;;23.77;54.99
15678;BME280;7939;50.814;6.368;2022-07-23T00:52:20;100124.84;;;23.76;55.17
15678;BME280;7939;50.814;6.368;2022-07-23T00:54:47;100116.16;;;23.76;55.16
15678;BME280;7939;50.814;6.368;2022-07-23T00:57:14;100123.13;;;23.75;54.93
15678;BME280;7939;50.814;6.368;2022-07-23T00:59:41;100126.66;;;23.74;55.24
15678;BME280;7939;50.814;6.368;2022-07-23T01:02:08;100119.75;;;23.73;54.79
15678;BME280;7939;50.814;6.368;2022-07-23T01:04:35;100127.59;;;23.73;54.92
15678;BME280;7939;50.814;6.368;2022-07-23T01:07:03;100112.84;;;23.72;55.19
15678;BME280;7939;50.814;6.368;2022-07-23T01:09:30;100118.06;;;23.72;55.23
15678;BME280;7939;50.814;6.368;2022-07-23T01:11:59;100110.34;;;23.71;55.16
15678;BME280;7939;50.814;6.368;2022-07-23T01:14:25;100113.00;;;23.69;54.79
15678;BME280;7939;50.814;6.368;2022-07-23T01:16:52;100106.09;;;23.68;54.82
15678;BME280;7939;50.814;6.368;2022-07-23T01:19:19;100102.63;;;23.67;55.09
15678;BME280;7939;50.814;6.368;2022-07-23T01:21:48;100113.16;;;23.66;55.11
15678;BME280;7939;50.814;6.368;2022-07-23T01:24:17;100119.28;;;23.65;55.52
15678;BME280;7939;50.814;6.368;2022-07-23T01:26:45;100120.22;;;23.64;55.09
15678;BME280;7939;50.814;6.368;2022-07-23T01:29:13;100116.81;;;23.62;55.38
15678;BME280;7939;50.814;6.368;2022-07-23T01:31:40;100114.25;;;23.60;55.57
15678;BME280;7939;50.814;6.368;2022-07-23T01:34:07;100116.03;;;23.60;55.52
15678;BME280;7939;50.814;6.368;2022-07-23T01:36:34;100118.63;;;23.60;55.38
15678;BME280;7939;50.814;6.368;2022-07-23T01:39:02;100110.88;;;23.58;55.50
15678;BME280;7939;50.814;6.368;2022-07-23T01:41:30;100110.03;;;23.58;55.55
15678;BME280;7939;50.814;6.368;2022-07-23T01:43:57;100102.28;;;23.56;55.53
15678;BME280;7939;50.814;6.368;2022-07-23T01:46:24;100096.22;;;23.56;55.35
15678;BME280;7939;50.814;6.368;2022-07-23T01:48:50;100097.13;;;23.55;55.62
15678;BME280;7939;50.814;6.368;2022-07-23T01:51:17;100098.06;;;23.54;55.57
15678;BME280;7939;50.814;6.368;2022-07-23T01:53:44;100091.16;;;23.53;55.92
15678;BME280;7939;50.814;6.368;2022-07-23T01:56:10;100097.31;;;23.52;55.51
15678;BME280;7939;50.814;6.368;2022-07-23T01:58:38;100088.63;;;23.51;55.46
15678;BME280;7939;50.814;6.368;2022-07-23T02:01:05;100080.84;;;23.50;55.62
15678;BME280;7939;50.814;6.368;2022-07-23T02:03:31;100081.78;;;23.49;55.55
15678;BME280;7939;50.814;6.368;2022-07-23T02:05:58;100073.13;;;23.48;55.56
15678;BME280;7939;50.814;6.368;2022-07-23T02:08:24;100079.25;;;23.47;55.45
15678;BME280;7939;50.814;6.368;2022-07-23T02:10:51;100079.34;;;23.46;55.70
15678;BME280;7939;50.814;6.368;2022-07-23T02:13:18;100082.78;;;23.46;55.83
15678;BME280;7939;50.814;6.368;2022-07-23T02:15:47;100071.56;;;23.44;55.76
15678;BME280;7939;50.814;6.368;2022-07-23T02:18:14;100075.94;;;23.43;55.62
15678;BME280;7939;50.814;6.368;2022-07-23T02:20:40;100079.47;;;23.42;55.66
15678;BME280;7939;50.814;6.368;2022-07-23T02:23:07;100075.16;;;23.41;55.60
15678;BME280;7939;50.814;6.368;2022-07-23T02:25:34;100074.31;;;23.41;55.76
15678;BME280;7939;50.814;6.368;2022-07-23T02:28:01;100075.25;;;23.40;55.72
15678;BME280;7939;50.814;6.368;2022-07-23T02:30:27;100076.19;;;23.39;55.47
15678;BME280;7939;50.814;6.368;2022-07-23T02:32:56;100078.84;;;23.37;55.67
15678;BME280;7939;50.814;6.368;2022-07-23T02:35:23;100078.06;;;23.35;55.63
15678;BME280;7939;50.814;6.368;2022-07-23T02:37:49;100079.84;;;23.35;55.70
15678;BME280;7939;50.814;6.368;2022-07-23T02:40:16;100085.97;;;23.34;55.48
15678;BME280;7939;50.814;6.368;2022-07-23T02:42:43;100083.44;;;23.32;55.83
15678;BME280;7939;50.814;6.368;2022-07-23T02:45:10;100086.09;;;23.31;55.81
15678;BME280;7939;50.814;6.368;2022-07-23T02:47:36;100087.03;;;23.30;55.77
15678;BME280;7939;50.814;6.368;2022-07-23T02:50:06;100087.13;;;23.28;55.90
15678;BME280;7939;50.814;6.368;2022-07-23T02:52:33;100084.50;;;23.28;55.76
15678;BME280;7939;50.814;6.368;2022-07-23T02:54:59;100088.03;;;23.27;55.70
15678;BME280;7939;50.814;6.368;2022-07-23T02:57:26;100087.25;;;23.25;55.75
15678;BME280;7939;50.814;6.368;2022-07-23T02:59:52;100097.75;;;23.24;55.75
15678;BME280;7939;50.814;6.368;2022-07-23T03:02:19;100102.97;;;23.24;55.76
15678;BME280;7939;50.814;6.368;2022-07-23T03:04:45;100103.06;;;23.22;55.75
15678;BME280;7939;50.814;6.368;2022-07-23T03:07:13;100094.47;;;23.20;55.70
15678;BME280;7939;50.814;6.368;2022-07-23T03:09:40;100092.75;;;23.19;55.77
15678;BME280;7939;50.814;6.368;2022-07-23T03:12:07;100091.13;;;23.17;55.79
15678;BME280;7939;50.814;6.368;2022-07-23T03:14:34;100085.09;;;23.16;55.86
15678;BME280;7939;50.814;6.368;2022-07-23T03:17:01;100086.84;;;23.15;55.69
15678;BME280;7939;50.814;6.368;2022-07-23T03:19:27;100091.31;;;23.13;55.76
15678;BME280;7939;50.814;6.368;2022-07-23T03:21:54;100098.25;;;23.13;55.76
15678;BME280;7939;50.814;6.368;2022-07-23T03:24:22;100094.88;;;23.11;55.59
15678;BME280;7939;50.814;6.368;2022-07-23T03:27:09;100100.16;;;23.09;55.79
15678;BME280;7939;50.814;6.368;2022-07-23T03:29:36;100091.50;;;23.09;55.66
15678;BME280;7939;50.814;6.368;2022-07-23T03:32:03;100102.00;;;23.07;55.57
15678;BME280;7939;50.814;6.368;2022-07-23T03:34:30;100096.00;;;23.05;55.71
15678;BME280;7939;50.814;6.368;2022-07-23T03:36:56;100098.69;;;23.04;55.68
15678;BME280;7939;50.814;6.368;2022-07-23T03:39:24;100099.59;;;23.03;55.42
15678;BME280;7939;50.814;6.368;2022-07-23T03:41:51;100098.78;;;23.02;55.84
15678;BME280;7939;50.814;6.368;2022-07-23T03:44:17;100098.84;;;23.01;55.38
15678;BME280;7939;50.814;6.368;2022-07-23T03:46:44;100097.13;;;23.00;55.41
15678;BME280;7939;50.814;6.368;2022-07-23T03:49:11;100094.59;;;22.98;55.64
15678;BME280;7939;50.814;6.368;2022-07-23T03:51:38;100103.34;;;22.97;55.75
15678;BME280;7939;50.814;6.368;2022-07-23T03:54:04;100093.91;;;22.95;55.34
15678;BME280;7939;50.814;6.368;2022-07-23T03:56:32;100099.13;;;22.95;55.52
15678;BME280;7939;50.814;6.368;2022-07-23T03:58:59;100092.19;;;22.94;55.38
15678;BME280;7939;50.814;6.368;2022-07-23T04:01:26;100098.34;;;22.93;55.54
15678;BME280;7939;50.814;6.368;2022-07-23T04:03:53;100103.63;;;22.91;55.16
15678;BME280;7939;50.814;6.368;2022-07-23T04:06:19;100105.47;;;22.89;55.27
15678;BME280;7939;50.814;6.368;2022-07-23T04:08:46;100112.44;;;22.88;55.44
15678;BME280;7939;50.814;6.368;2022-07-23T04:11:13;100109.88;;;22.87;55.48
15678;BME280;7939;50.814;6.368;2022-07-23T04:13:40;100113.38;;;22.86;55.68
15678;BME280;7939;50.814;6.368;2022-07-23T04:16:07;100123.03;;;22.84;55.51
15678;BME280;7939;50.814;6.368;2022-07-23T04:18:34;100119.59;;;22.83;55.33
15678;BME280;7939;50.814;6.368;2022-07-23T04:21:00;100128.25;;;22.84;55.21
15678;BME280;7939;50.814;6.368;2022-07-23T04:23:27;100123.94;;;22.83;55.39
15678;BME280;7939;50.814;6.368;2022-07-23T04:25:53;100125.75;;;22.81;55.39
15678;BME280;7939;50.814;6.368;2022-07-23T04:28:20;100121.47;;;22.80;55.48
15678;BME280;7939;50.814;6.368;2022-07-23T04:30:48;100120.69;;;22.78;55.16
15678;BME280;7939;50.814;6.368;2022-07-23T04:33:15;100134.66;;;22.77;55.48
15678;BME280;7939;50.814;6.368;2022-07-23T04:35:41;100126.84;;;22.77;55.25
15678;BME280;7939;50.814;6.368;2022-07-23T04:38:08;100133.81;;;22.76;55.63
15678;BME280;7939;50.814;6.368;2022-07-23T04:40:34;100138.16;;;22.76;55.32
15678;BME280;7939;50.814;6.368;2022-07-23T04:43:01;100148.63;;;22.74;55.34
15678;BME280;7939;50.814;6.368;2022-07-23T04:45:27;100151.25;;;22.74;55.18
15678;BME280;7939;50.814;6.368;2022-07-23T04:47:55;100153.00;;;22.74;55.31
15678;BME280;7939;50.814;6.368;2022-07-23T04:50:23;100153.94;;;22.73;55.42
15678;BME280;7939;50.814;6.368;2022-07-23T04:52:49;100160.81;;;22.74;55.28
15678;BME280;7939;50.814;6.368;2022-07-23T04:55:16;100160.91;;;22.72;55.28
15678;BME280;7939;50.814;6.368;2022-07-23T04:57:43;100170.47;;;22.72;55.61
15678;BME280;7939;50.814;6.368;2022-07-23T05:00:11;100174.91;;;22.70;55.19
15678;BME280;7939;50.814;6.368;2022-07-23T05:02:37;100174.84;;;22.71;55.50
15678;BME280;7939;50.814;6.368;2022-07-23T05:05:06;100174.06;;;22.69;55.45
15678;BME280;7939;50.814;6.368;2022-07-23T05:07:33;100177.53;;;22.70;55.17
15678;BME280;7939;50.814;6.368;2022-07-23T05:10:00;100165.38;;;22.69;55.49
15678;BME280;7939;50.814;6.368;2022-07-23T05:12:26;100163.69;;;22.68;55.70
15678;BME280;7939;50.814;6.368;2022-07-23T05:14:53;100163.69;;;22.68;55.53
15678;BME280;7939;50.814;6.368;2022-07-23T05:17:19;100172.34;;;22.68;55.77
15678;BME280;7939;50.814;6.368;2022-07-23T05:19:46;100164.53;;;22.68;55.73
15678;BME280;7939;50.814;6.368;2022-07-23T05:22:14;100165.47;;;22.67;55.45
15678;BME280;7939;50.814;6.368;2022-07-23T05:24:40;100174.19;;;22.66;55.67
15678;BME280;7939;50.814;6.368;2022-07-23T05:27:08;100162.00;;;22.67;55.75
15678;BME280;7939;50.814;6.368;2022-07-23T05:29:34;100158.56;;;22.66;55.87
15678;BME280;7939;50.814;6.368;2022-07-23T05:32:01;100167.22;;;22.67;55.89
15678;BME280;7939;50.814;6.368;2022-07-23T05:34:28;100156.88;;;22.65;55.73
15678;BME280;7939;50.814;6.368;2022-07-23T05:36:54;100178.56;;;22.66;55.64
15678;BME280;7939;50.814;6.368;2022-07-23T05:39:23;100167.28;;;22.65;55.86
15678;BME280;7939;50.814;6.368;2022-07-23T05:41:49;100169.91;;;22.65;55.85
15678;BME280;7939;50.814;6.368;2022-07-23T05:44:16;100171.59;;;22.66;56.00
15678;BME280;7939;50.814;6.368;2022-07-23T05:46:42;100176.81;;;22.66;55.82
15678;BME280;7939;50.814;6.368;2022-07-23T05:49:09;100184.63;;;22.66;56.01
15678;BME280;7939;50.814;6.368;2022-07-23T05:51:35;100181.16;;;22.66;55.87
15678;BME280;7939;50.814;6.368;2022-07-23T05:54:02;100192.50;;;22.65;55.98
15678;BME280;7939;50.814;6.368;2022-07-23T05:56:30;100184.69;;;22.65;56.45
15678;BME280;7939;50.814;6.368;2022-07-23T05:58:56;100184.69;;;22.65;56.03
15678;BME280;7939;50.814;6.368;2022-07-23T06:01:23;100183.78;;;22.66;56.07
15678;BME280;7939;50.814;6.368;2022-07-23T06:03:49;100200.25;;;22.66;56.08
15678;BME280;7939;50.814;6.368;2022-07-23T06:06:16;100196.88;;;22.64;56.19
15678;BME280;7939;50.814;6.368;2022-07-23T06:08:43;100190.75;;;22.65;56.31
15678;BME280;7939;50.814;6.368;2022-07-23T06:11:09;100193.34;;;22.65;56.18
15678;BME280;7939;50.814;6.368;2022-07-23T06:13:38;100195.09;;;22.65;56.41
15678;BME280;7939;50.814;6.368;2022-07-23T06:16:05;100195.88;;;22.67;56.14
15678;BME280;7939;50.814;6.368;2022-07-23T06:18:31;100198.56;;;22.65;56.51
15678;BME280;7939;50.814;6.368;2022-07-23T06:20:58;100197.63;;;22.66;56.66
15678;BME280;7939;50.814;6.368;2022-07-23T06:23:25;100195.09;;;22.65;57.01
15678;BME280;7939;50.814;6.368;2022-07-23T06:25:51;100202.00;;;22.66;57.04
15678;BME280;7939;50.814;6.368;2022-07-23T06:28:18;100200.25;;;22.66;57.20
15678;BME280;7939;50.814;6.368;2022-07-23T06:30:46;100212.44;;;22.66;56.80
15678;BME280;7939;50.814;6.368;2022-07-23T06:33:13;100201.16;;;22.65;57.06
15678;BME280;7939;50.814;6.368;2022-07-23T06:35:40;100208.97;;;22.65;57.22
15678;BME280;7939;50.814;6.368;2022-07-23T06:38:07;100210.75;;;22.65;56.97
15678;BME280;7939;50.814;6.368;2022-07-23T06:40:33;100213.47;;;22.61;57.14
15678;BME280;7939;50.814;6.368;2022-07-23T06:43:00;100205.59;;;22.63;57.38
15678;BME280;7939;50.814;6.368;2022-07-23T06:45:27;100212.53;;;22.62;57.51
15678;BME280;7939;50.814;6.368;2022-07-23T06:47:55;100221.09;;;22.66;57.37
15678;BME280;7939;50.814;6.368;2022-07-23T06:50:22;100215.88;;;22.66;57.37
15678;BME280;7939;50.814;6.368;2022-07-23T06:52:48;100220.19;;;22.67;57.91
15678;BME280;7939;50.814;6.368;2022-07-23T06:55:14;100216.66;;;22.68;57.25
15678;BME280;7939;50.814;6.368;2022-07-23T06:57:41;100214.88;;;22.69;57.06
15678;BME280;7939;50.814;6.368;2022-07-23T07:00:10;100224.44;;;22.70;57.16
15678;BME280;7939;50.814;6.368;2022-07-23T07:02:36;100223.50;;;22.71;57.31
15678;BME280;7939;50.814;6.368;2022-07-23T07:05:05;100225.13;;;22.73;57.37
15678;BME280;7939;50.814;6.368;2022-07-23T07:07:32;100230.25;;;22.75;57.59
15678;BME280;7939;50.814;6.368;2022-07-23T07:09:58;100237.22;;;22.74;57.55
15678;BME280;7939;50.814;6.368;2022-07-23T07:12:25;100233.66;;;22.77;57.03
15678;BME280;7939;50.814;6.368;2022-07-23T07:14:51;100241.47;;;22.77;57.61
15678;BME280;7939;50.814;6.368;2022-07-23T07:17:18;100235.28;;;22.79;57.41
15678;BME280;7939;50.814;6.368;2022-07-23T07:19:45;100246.56;;;22.80;57.18
15678;BME280;7939;50.814;6.368;2022-07-23T07:22:13;100231.75;;;22.80;57.21
15678;BME280;7939;50.814;6.368;2022-07-23T07:24:40;100240.41;;;22.81;57.21
15678;BME280;7939;50.814;6.368;2022-07-23T07:27:06;100243.84;;;22.83;57.20
15678;BME280;7939;50.814;6.368;2022-07-23T07:29:33;100238.53;;;22.84;57.12
15678;BME280;7939;50.814;6.368;2022-07-23T07:32:00;100235.03;;;22.85;57.28
15678;BME280;7939;50.814;6.368;2022-07-23T07:34:26;100235.88;;;22.86;56.92
15678;BME280;7939;50.814;6.368;2022-07-23T07:36:53;100241.03;;;22.87;57.07
15678;BME280;7939;50.814;6.368;2022-07-23T07:41:47;100234.88;;;22.90;56.83
15678;BME280;7939;50.814;6.368;2022-07-23T07:44:14;100240.78;;;22.94;57.01
15678;BME280;7939;50.814;6.368;2022-07-23T07:46:40;100248.53;;;22.95;57.08
15678;BME280;7939;50.814;6.368;2022-07-23T07:49:07;100254.44;;;22.99;56.54
15678;BME280;7939;50.814;6.368;2022-07-23T07:51:33;100260.47;;;23.01;56.62
15678;BME280;7939;50.814;6.368;2022-07-23T07:54:00;100255.19;;;23.02;56.74
15678;BME280;7939;50.814;6.368;2022-07-23T07:56:28;100262.94;;;23.04;56.93
15678;BME280;7939;50.814;6.368;2022-07-23T07:58:55;100257.63;;;23.05;57.16
15678;BME280;7939;50.814;6.368;2022-07-23T08:01:22;100261.94;;;23.06;57.23
15678;BME280;7939;50.814;6.368;2022-07-23T08:03:48;100265.34;;;23.08;57.34
15678;BME280;7939;50.814;6.368;2022-07-23T08:06:15;100263.50;;;23.10;57.00
15678;BME280;7939;50.814;6.368;2022-07-23T08:08:42;100269.63;;;23.09;57.12
15678;BME280;7939;50.814;6.368;2022-07-23T08:11:08;100267.72;;;23.13;57.78
15678;BME280;7939;50.814;6.368;2022-07-23T08:13:36;100269.44;;;23.14;57.46
15678;BME280;7939;50.814;6.368;2022-07-23T08:16:03;100267.41;;;23.21;56.55
15678;BME280;7939;50.814;6.368;2022-07-23T08:18:30;100276.78;;;23.25;57.08
15678;BME280;7939;50.814;6.368;2022-07-23T08:20:57;100274.03;;;23.28;57.07
15678;BME280;7939;50.814;6.368;2022-07-23T08:23:24;100279.06;;;23.32;56.85
15678;BME280;7939;50.814;6.368;2022-07-23T08:25:50;100271.94;;;23.36;56.78
15678;BME280;7939;50.814;6.368;2022-07-23T08:28:17;100277.16;;;23.36;56.65
15678;BME280;7939;50.814;6.368;2022-07-23T08:30:45;100278.78;;;23.38;56.78
15678;BME280;7939;50.814;6.368;2022-07-23T08:33:13;100266.50;;;23.40;56.68
15678;BME280;7939;50.814;6.368;2022-07-23T08:35:41;100271.81;;;23.39;56.46
15678;BME280;7939;50.814;6.368;2022-07-23T08:38:10;100265.50;;;23.43;56.22
15678;BME280;7939;50.814;6.368;2022-07-23T08:40:38;100275.91;;;23.45;56.14
15678;BME280;7939;50.814;6.368;2022-07-23T08:43:07;100286.25;;;23.46;55.85
15678;BME280;7939;50.814;6.368;2022-07-23T08:45:36;100282.72;;;23.47;56.07
15678;BME280;7939;50.814;6.368;2022-07-23T08:48:09;100287.03;;;23.48;56.12
15678;BME280;7939;50.814;6.368;2022-07-23T08:50:37;100280.88;;;23.49;55.94
15678;BME280;7939;50.814;6.368;2022-07-23T08:53:06;100284.31;;;23.51;55.49
15678;BME280;7939;50.814;6.368;2022-07-23T08:55:34;100287.47;;;23.58;55.65
15678;BME280;7939;50.814;6.368;2022-07-23T08:58:00;100283.03;;;23.60;55.70
15678;BME280;7939;50.814;6.368;2022-07-23T09:00:28;100283.81;;;23.62;55.54
15678;BME280;7939;50.814;6.368;2022-07-23T09:02:55;100294.97;;;23.65;55.41
15678;BME280;7939;50.814;6.368;2022-07-23T09:05:23;100293.22;;;23.66;55.09
15678;BME280;7939;50.814;6.368;2022-07-23T09:08:07;100291.16;;;23.73;54.92
15678;BME280;7939;50.814;6.368;2022-07-23T09:10:49;100291.16;;;23.73;54.77
15678;BME280;7939;50.814;6.368;2022-07-23T09:13:25;100298.78;;;23.77;54.45
15678;BME280;7939;50.814;6.368;2022-07-23T09:15:54;100296.81;;;23.82;54.62
15678;BME280;7939;50.814;6.368;2022-07-23T09:18:31;100303.44;;;23.89;54.55
15678;BME280;7939;50.814;6.368;2022-07-23T09:21:20;100297.09;;;23.95;54.19
15678;BME280;7939;50.814;6.368;2022-07-23T09:23:50;100295.38;;;23.94;54.43
15678;BME280;7939;50.814;6.368;2022-07-23T09:26:25;100297.69;;;24.00;54.40
15678;BME280;7939;50.814;6.368;2022-07-23T09:28:57;100301.88;;;24.04;54.67
15678;BME280;7939;50.814;6.368;2022-07-23T09:31:25;100294.75;;;24.08;53.57
15678;BME280;7939;50.814;6.368;2022-07-23T09:34:07;100303.13;;;24.14;53.64
15678;BME280;7939;50.814;6.368;2022-07-23T09:36:35;100292.59;;;24.16;53.07
15678;BME280;7939;50.814;6.368;2022-07-23T09:39:03;100287.47;;;24.14;53.05
15678;BME280;7939;50.814;6.368;2022-07-23T09:41:34;100291.56;;;24.20;52.97
15678;BME280;7939;50.814;6.368;2022-07-23T09:44:07;100292.09;;;24.27;53.15
15678;BME280;7939;50.814;6.368;2022-07-23T09:46:34;100290.94;;;24.32;53.00
15678;BME280;7939;50.814;6.368;2022-07-23T09:49:10;100294.38;;;24.34;52.72
15678;BME280;7939;50.814;6.368;2022-07-23T09:51:44;100295.88;;;24.38;52.71
15678;BME280;7939;50.814;6.368;2022-07-23T09:54:21;100287.84;;;24.43;52.62
15678;BME280;7939;50.814;6.368;2022-07-23T09:56:48;100292.22;;;24.42;52.25
15678;BME280;7939;50.814;6.368;2022-07-23T09:59:16;100291.22;;;24.45;51.85
15678;BME280;7939;50.814;6.368;2022-07-23T10:01:44;100284.06;;;24.48;52.04
15678;BME280;7939;50.814;6.368;2022-07-23T10:04:11;100289.22;;;24.50;51.76
15678;BME280;7939;50.814;6.368;2022-07-23T10:06:39;100283.69;;;24.56;51.45
15678;BME280;7939;50.814;6.368;2022-07-23T10:09:08;100279.09;;;24.61;51.33
15678;BME280;7939;50.814;6.368;2022-07-23T10:11:35;100275.53;;;24.62;51.78
15678;BME280;7939;50.814;6.368;2022-07-23T10:14:03;100281.31;;;24.69;52.05
15678;BME280;7939;50.814;6.368;2022-07-23T10:16:29;100271.38;;;24.75;51.92
15678;BME280;7939;50.814;6.368;2022-07-23T10:18:56;100270.22;;;24.81;51.67
15678;BME280;7939;50.814;6.368;2022-07-23T10:21:25;100275.22;;;24.86;51.13
15678;BME280;7939;50.814;6.368;2022-07-23T10:24:04;100286.63;;;24.85;50.87
15678;BME280;7939;50.814;6.368;2022-07-23T10:26:41;100279.41;;;24.90;50.62
15678;BME280;7939;50.814;6.368;2022-07-23T10:29:19;100275.84;;;24.91;50.47
15678;BME280;7939;50.814;6.368;2022-07-23T10:31:57;100278.16;;;24.97;50.03
15678;BME280;7939;50.814;6.368;2022-07-23T10:34:30;100277.97;;;25.00;50.11
15678;BME280;7939;50.814;6.368;2022-07-23T10:37:07;100276.06;;;25.03;50.04
15678;BME280;7939;50.814;6.368;2022-07-23T10:39:37;100278.47;;;25.08;49.24
15678;BME280;7939;50.814;6.368;2022-07-23T10:42:10;100272.38;;;25.08;49.27
15678;BME280;7939;50.814;6.368;2022-07-23T10:44:41;100275.69;;;25.11;48.92
15678;BME280;7939;50.814;6.368;2022-07-23T10:47:09;100279.75;;;25.17;48.58
15678;BME280;7939;50.814;6.368;2022-07-23T10:49:51;100275.38;;;25.17;47.98
15678;BME280;7939;50.814;6.368;2022-07-23T10:52:22;100276.72;;;25.24;47.28
15678;BME280;7939;50.814;6.368;2022-07-23T10:54:52;100276.63;;;25.26;47.42
15678;BME280;7939;50.814;6.368;2022-07-23T10:57:23;100279.13;;;25.29;47.02
15678;BME280;7939;50.814;6.368;2022-07-23T11:00:14;100272.72;;;25.35;47.26
15678;BME280;7939;50.814;6.368;2022-07-23T11:02:42;100268.94;;;25.40;47.17
15678;BME280;7939;50.814;6.368;2022-07-23T11:05:13;100265.97;;;25.46;47.46
15678;BME280;7939;50.814;6.368;2022-07-23T11:08:10;100264.03;;;25.50;47.62
15678;BME280;7939;50.814;6.368;2022-07-23T11:10:39;100266.41;;;25.54;47.49
15678;BME280;7939;50.814;6.368;2022-07-23T11:13:30;100268.94;;;25.56;47.56
15678;BME280;7939;50.814;6.368;2022-07-23T11:16:04;100262.69;;;25.59;47.38
15678;BME280;7939;50.814;6.368;2022-07-23T11:21:43;100262.94;;;25.70;47.18
15678;BME280;7939;50.814;6.368;2022-07-23T11:24:11;100265.44;;;25.73;47.00
15678;BME280;7939;50.814;6.368;2022-07-23T11:26:50;100260.00;;;25.76;46.55
15678;BME280;7939;50.814;6.368;2022-07-23T11:29:41;100265.00;;;25.80;46.10
15678;BME280;7939;50.814;6.368;2022-07-23T11:32:28;100270.16;;;25.82;45.91
15678;BME280;7939;50.814;6.368;2022-07-23T11:34:56;100282.31;;;25.83;45.92
15678;BME280;7939;50.814;6.368;2022-07-23T11:37:43;100270.59;;;25.90;46.32
15678;BME280;7939;50.814;6.368;2022-07-23T11:40:11;100259.94;;;25.93;46.21
15678;BME280;7939;50.814;6.368;2022-07-23T11:42:40;100256.22;;;25.97;46.31
15678;BME280;7939;50.814;6.368;2022-07-23T11:45:18;100263.88;;;26.00;45.95
15678;BME280;7939;50.814;6.368;2022-07-23T11:47:45;100266.41;;;26.02;45.00
15678;BME280;7939;50.814;6.368;2022-07-23T11:50:11;100267.28;;;26.02;44.70
15678;BME280;7939;50.814;6.368;2022-07-23T11:52:38;100264.47;;;26.05;44.70
15678;BME280;7939;50.814;6.368;2022-07-23T11:55:07;100264.38;;;26.07;44.79
15678;BME280;7939;50.814;6.368;2022-07-23T11:57:36;100271.16;;;26.11;44.88
15678;BME280;7939;50.814;6.368;2022-07-23T12:00:06;100270.22;;;26.12;45.22
15678;BME280;7939;50.814;6.368;2022-07-23T12:02:36;100270.91;;;26.16;44.97
15678;BME280;7939;50.814;6.368;2022-07-23T12:05:04;100271.53;;;26.19;44.43
15678;BME280;7939;50.814;6.368;2022-07-23T12:07:33;100273.22;;;26.20;45.07
15678;BME280;7939;50.814;6.368;2022-07-23T12:10:04;100265.31;;;26.22;44.67
15678;BME280;7939;50.814;6.368;2022-07-23T12:12:36;100263.44;;;26.24;44.66
15678;BME280;7939;50.814;6.368;2022-07-23T12:15:05;100267.59;;;26.28;44.18
15678;BME280;7939;50.814;6.368;2022-07-23T12:17:34;100269.31;;;26.27;43.67
15678;BME280;7939;50.814;6.368;2022-07-23T12:20:04;100268.41;;;26.28;43.87
15678;BME280;7939;50.814;6.368;2022-07-23T12:22:36;100273.72;;;26.27;44.39
15678;BME280;7939;50.814;6.368;2022-07-23T12:25:05;100269.16;;;26.30;45.47
15678;BME280;7939;50.814;6.368;2022-07-23T12:27:33;100267.97;;;26.36;44.86
15678;BME280;7939;50.814;6.368;2022-07-23T12:30:15;100268.81;;;26.36;44.78
15678;BME280;7939;50.814;6.368;2022-07-23T12:32:43;100269.75;;;26.35;44.03
15678;BME280;7939;50.814;6.368;2022-07-23T12:35:12;100257.75;;;26.31;43.37
15678;BME280;7939;50.814;6.368;2022-07-23T12:37:40;100263.72;;;26.33;43.35
15678;BME280;7939;50.814;6.368;2022-07-23T12:40:22;100256.81;;;26.32;43.46
15678;BME280;7939;50.814;6.368;2022-07-23T12:42:51;100259.38;;;26.34;43.94
15678;BME280;7939;50.814;6.368;2022-07-23T12:45:18;100254.97;;;26.34;43.77
15678;BME280;7939;50.814;6.368;2022-07-23T12:48:03;100252.25;;;26.36;44.10
15678;BME280;7939;50.814;6.368;2022-07-23T12:50:44;100258.22;;;26.38;44.38
15678;BME280;7939;50.814;6.368;2022-07-23T12:53:14;100254.69;;;26.39;44.43
15678;BME280;7939;50.814;6.368;2022-07-23T12:55:42;100264.41;;;26.37;43.78
15678;BME280;7939;50.814;6.368;2022-07-23T12:58:12;100265.25;;;26.38;43.63
15678;BME280;7939;50.814;6.368;2022-07-23T13:01:01;100266.09;;;26.38;43.62
15678;BME280;7939;50.814;6.368;2022-07-23T13:03:32;100256.31;;;26.42;43.65
15678;BME280;7939;50.814;6.368;2022-07-23T13:06:01;100258.94;;;26.42;44.23
15678;BME280;7939;50.814;6.368;2022-07-23T13:08:29;100258.00;;;26.43;44.02
15678;BME280;7939;50.814;6.368;2022-07-23T13:10:56;100264.09;;;26.43;43.65
15678;BME280;7939;50.814;6.368;2022-07-23T13:13:25;100261.47;;;26.43;43.79